sensor_id;sensor_type;location;lat;lon;timestamp;pressure;altitude;pressure_sealevel;temperature;humidity
61906;BME280;47863;55.766;37.672;2023-07-20T00:00:29;98432.28;;;13.44;72.94
61906;BME280;47863;55.766;37.672;2023-07-20T00:03:10;98485.16;;;13.77;72.90
61906;BME280;47863;55.766;37.672;2023-07-20T00:05:38;98484.09;;;13.78;72.95
61906;BME280;47863;55.766;37.672;2023-07-20T00:08:04;98482.06;;;13.73;72.66
61906;BME280;47863;55.766;37.672;2023-07-20T00:10:29;98455.22;;;13.53;72.78
61906;BME280;47863;55.766;37.672;2023-07-20T00:12:55;98492.22;;;13.64;72.69
61906;BME280;47863;55.766;37.672;2023-07-20T00:15:21;98489.94;;;13.68;72.90
61906;BME280;47863;55.766;37.672;2023-07-20T00:17:46;98495.31;;;13.68;73.63
61906;BME280;47863;55.766;37.672;2023-07-20T00:20:12;98505.47;;;13.66;73.50
61906;BME280;47863;55.766;37.672;2023-07-20T00:22:37;98486.88;;;13.58;73.40
61906;BME280;47863;55.766;37.672;2023-07-20T00:25:05;98491.41;;;13.64;73.53
61906;BME280;47863;55.766;37.672;2023-07-20T00:27:32;98423.44;;;13.17;73.36
61906;BME280;47863;55.766;37.672;2023-07-20T00:29:58;98507.38;;;13.59;73.33
61906;BME280;47863;55.766;37.672;2023-07-20T00:32:23;98511.28;;;13.56;73.58
61906;BME280;47863;55.766;37.672;2023-07-20T00:34:49;98505.28;;;13.54;73.73
61906;BME280;47863;55.766;37.672;2023-07-20T00:37:14;98483.19;;;13.39;73.49
61906;BME280;47863;55.766;37.672;2023-07-20T00:39:40;98507.81;;;13.49;73.51
61906;BME280;47863;55.766;37.672;2023-07-20T00:42:06;98508.00;;;13.47;73.47
61906;BME280;47863;55.766;37.672;2023-07-20T00:44:31;98506.13;;;13.48;74.22
61906;BME280;47863;55.766;37.672;2023-07-20T00:46:57;98513.59;;;13.46;73.83
61906;BME280;47863;55.766;37.672;2023-07-20T00:49:23;98510.28;;;13.44;73.85
61906;BME280;47863;55.766;37.672;2023-07-20T00:51:49;98505.34;;;13.41;73.90
61906;BME280;47863;55.766;37.672;2023-07-20T00:54:16;98518.81;;;13.41;73.91
61906;BME280;47863;55.766;37.672;2023-07-20T00:56:42;98515.47;;;13.39;73.88
61906;BME280;47863;55.766;37.672;2023-07-20T00:59:09;98442.50;;;12.95;73.89
61906;BME280;47863;55.766;37.672;2023-07-20T01:01:35;98499.56;;;13.31;73.81
61906;BME280;47863;55.766;37.672;2023-07-20T01:04:01;98522.31;;;13.35;73.62
61906;BME280;47863;55.766;37.672;2023-07-20T01:06:40;98492.53;;;13.16;73.65
61906;BME280;47863;55.766;37.672;2023-07-20T01:09:21;98513.84;;;13.31;73.84
61906;BME280;47863;55.766;37.672;2023-07-20T01:14:19;98511.94;;;13.25;73.48
61906;BME280;47863;55.766;37.672;2023-07-20T01:16:45;98518.59;;;13.29;74.38
61906;BME280;47863;55.766;37.672;2023-07-20T01:19:13;98514.22;;;13.28;74.07
61906;BME280;47863;55.766;37.672;2023-07-20T01:21:41;98512.59;;;13.27;73.91
61906;BME280;47863;55.766;37.672;2023-07-20T01:27:25;98495.41;;;13.15;74.23
61906;BME280;47863;55.766;37.672;2023-07-20T01:30:30;98518.56;;;13.22;73.62
61906;BME280;47863;55.766;37.672;2023-07-20T01:33:00;98519.63;;;13.21;73.51
61906;BME280;47863;55.766;37.672;2023-07-20T01:35:29;98475.19;;;12.92;73.58
61906;BME280;47863;55.766;37.672;2023-07-20T01:37:55;98475.19;;;12.92;73.87
61906;BME280;47863;55.766;37.672;2023-07-20T01:40:24;98502.47;;;13.09;74.10
61906;BME280;47863;55.766;37.672;2023-07-20T01:42:51;98517.13;;;13.20;74.54
61906;BME280;47863;55.766;37.672;2023-07-20T01:45:17;98503.91;;;13.12;74.23
61906;BME280;47863;55.766;37.672;2023-07-20T01:47:43;98523.94;;;13.22;74.11
61906;BME280;47863;55.766;37.672;2023-07-20T01:50:12;98513.81;;;13.24;74.04
61906;BME280;47863;55.766;37.672;2023-07-20T01:52:37;98502.88;;;13.19;74.08
61906;BME280;47863;55.766;37.672;2023-07-20T01:55:03;98517.97;;;13.27;73.99
61906;BME280;47863;55.766;37.672;2023-07-20T01:57:30;98515.28;;;13.27;73.86
61906;BME280;47863;55.766;37.672;2023-07-20T01:59:55;98514.22;;;13.28;73.78
61906;BME280;47863;55.766;37.672;2023-07-20T02:02:22;98511.97;;;13.32;73.86
61906;BME280;47863;55.766;37.672;2023-07-20T02:04:48;98509.28;;;13.32;73.71
61906;BME280;47863;55.766;37.672;2023-07-20T02:07:14;98512.34;;;13.28;73.62
61906;BME280;47863;55.766;37.672;2023-07-20T02:09:39;98510.94;;;13.33;73.76
61906;BME280;47863;55.766;37.672;2023-07-20T02:12:05;98513.84;;;13.31;73.79
61906;BME280;47863;55.766;37.672;2023-07-20T02:14:31;98512.41;;;13.35;74.29
61906;BME280;47863;55.766;37.672;2023-07-20T02:16:57;98493.16;;;13.18;73.88
61906;BME280;47863;55.766;37.672;2023-07-20T02:19:25;98497.06;;;13.22;73.80
61906;BME280;47863;55.766;37.672;2023-07-20T02:21:52;98522.31;;;13.35;74.34
61906;BME280;47863;55.766;37.672;2023-07-20T02:24:18;98526.88;;;13.41;74.90
61906;BME280;47863;55.766;37.672;2023-07-20T02:26:44;98486.94;;;13.18;74.81
61906;BME280;47863;55.766;37.672;2023-07-20T02:29:10;98527.88;;;13.40;75.08
61906;BME280;47863;55.766;37.672;2023-07-20T02:31:39;98527.06;;;13.39;74.82
61906;BME280;47863;55.766;37.672;2023-07-20T02:34:06;98527.47;;;13.36;75.11
61906;BME280;47863;55.766;37.672;2023-07-20T02:36:32;98519.22;;;13.31;75.23
61906;BME280;47863;55.766;37.672;2023-07-20T02:39:01;98528.53;;;13.35;75.11
61906;BME280;47863;55.766;37.672;2023-07-20T02:41:30;98517.72;;;13.28;75.13
61906;BME280;47863;55.766;37.672;2023-07-20T02:43:56;98530.38;;;13.41;74.87
61906;BME280;47863;55.766;37.672;2023-07-20T02:46:22;98538.00;;;13.44;74.70
61906;BME280;47863;55.766;37.672;2023-07-20T02:48:47;98534.50;;;13.44;74.75
61906;BME280;47863;55.766;37.672;2023-07-20T02:51:13;98551.88;;;13.48;75.14
61906;BME280;47863;55.766;37.672;2023-07-20T02:53:39;98546.69;;;13.53;75.41
61906;BME280;47863;55.766;37.672;2023-07-20T02:56:05;98522.50;;;13.40;75.41
61906;BME280;47863;55.766;37.672;2023-07-20T02:58:30;98524.78;;;13.36;75.43
61906;BME280;47863;55.766;37.672;2023-07-20T03:00:56;98548.75;;;13.58;75.53
61906;BME280;47863;55.766;37.672;2023-07-20T03:03:22;98533.84;;;13.48;75.32
61906;BME280;47863;55.766;37.672;2023-07-20T03:05:47;98550.78;;;13.62;75.36
61906;BME280;47863;55.766;37.672;2023-07-20T03:08:19;98553.91;;;13.66;75.06
61906;BME280;47863;55.766;37.672;2023-07-20T03:10:45;98537.78;;;13.59;75.15
61906;BME280;47863;55.766;37.672;2023-07-20T03:13:11;98540.66;;;13.64;75.08
61906;BME280;47863;55.766;37.672;2023-07-20T03:15:38;98535.25;;;13.64;74.96
61906;BME280;47863;55.766;37.672;2023-07-20T03:18:03;98536.28;;;13.70;74.58
61906;BME280;47863;55.766;37.672;2023-07-20T03:20:30;98551.38;;;13.78;74.82
61906;BME280;47863;55.766;37.672;2023-07-20T03:22:56;98537.72;;;13.79;75.12
61906;BME280;47863;55.766;37.672;2023-07-20T03:25:22;98559.00;;;13.94;74.90
61906;BME280;47863;55.766;37.672;2023-07-20T03:27:48;98575.31;;;13.99;74.96
61906;BME280;47863;55.766;37.672;2023-07-20T03:30:14;98496.38;;;13.67;74.91
61906;BME280;47863;55.766;37.672;2023-07-20T03:32:39;98567.25;;;14.06;75.18
61906;BME280;47863;55.766;37.672;2023-07-20T03:35:06;98572.38;;;14.14;75.25
61906;BME280;47863;55.766;37.672;2023-07-20T03:37:32;98566.34;;;14.19;74.94
61906;BME280;47863;55.766;37.672;2023-07-20T03:39:57;98566.53;;;14.24;74.85
61906;BME280;47863;55.766;37.672;2023-07-20T03:42:23;98548.31;;;14.19;74.66
61906;BME280;47863;55.766;37.672;2023-07-20T03:44:49;98543.13;;;14.24;74.56
61906;BME280;47863;55.766;37.672;2023-07-20T03:47:16;98563.06;;;14.48;74.18
61906;BME280;47863;55.766;37.672;2023-07-20T03:49:59;98564.28;;;14.59;73.90
61906;BME280;47863;55.766;37.672;2023-07-20T03:52:25;98566.53;;;14.62;74.02
61906;BME280;47863;55.766;37.672;2023-07-20T03:54:51;98572.06;;;14.74;73.83
61906;BME280;47863;55.766;37.672;2023-07-20T03:57:17;98537.28;;;14.66;73.69
61906;BME280;47863;55.766;37.672;2023-07-20T03:59:45;98519.84;;;14.68;73.24
61906;BME280;47863;55.766;37.672;2023-07-20T04:02:12;98580.34;;;15.30;73.02
61906;BME280;47863;55.766;37.672;2023-07-20T04:04:37;98577.84;;;15.53;72.46
61906;BME280;47863;55.766;37.672;2023-07-20T04:07:03;98571.81;;;15.76;72.38
61906;BME280;47863;55.766;37.672;2023-07-20T04:09:29;98553.97;;;15.94;72.18
61906;BME280;47863;55.766;37.672;2023-07-20T04:11:55;98561.72;;;16.20;71.29
61906;BME280;47863;55.766;37.672;2023-07-20T04:14:20;98562.25;;;16.29;70.98
61906;BME280;47863;55.766;37.672;2023-07-20T04:16:47;98564.84;;;16.36;70.79
61906;BME280;47863;55.766;37.672;2023-07-20T04:19:12;98574.66;;;16.49;70.84
61906;BME280;47863;55.766;37.672;2023-07-20T04:21:41;98572.25;;;16.59;70.73
61906;BME280;47863;55.766;37.672;2023-07-20T04:24:07;98562.94;;;16.55;70.83
61906;BME280;47863;55.766;37.672;2023-07-20T04:26:33;98568.13;;;16.68;70.82
61906;BME280;47863;55.766;37.672;2023-07-20T04:28:58;98580.97;;;16.73;70.93
61906;BME280;47863;55.766;37.672;2023-07-20T04:31:27;98581.56;;;16.75;71.03
61906;BME280;47863;55.766;37.672;2023-07-20T04:33:53;98587.91;;;16.69;70.74
61906;BME280;47863;55.766;37.672;2023-07-20T04:36:18;98543.69;;;16.33;70.83
61906;BME280;47863;55.766;37.672;2023-07-20T04:38:47;98578.41;;;16.48;70.80
61906;BME280;47863;55.766;37.672;2023-07-20T04:41:13;98582.91;;;16.54;71.00
61906;BME280;47863;55.766;37.672;2023-07-20T04:43:43;98567.13;;;16.51;70.98
61906;BME280;47863;55.766;37.672;2023-07-20T04:46:10;98567.53;;;16.66;70.74
61906;BME280;47863;55.766;37.672;2023-07-20T04:48:35;98582.34;;;16.63;70.69
61906;BME280;47863;55.766;37.672;2023-07-20T04:51:02;98574.94;;;16.59;70.91
61906;BME280;47863;55.766;37.672;2023-07-20T04:53:28;98581.13;;;16.48;71.05
61906;BME280;47863;55.766;37.672;2023-07-20T04:55:53;98565.63;;;16.24;71.15
61906;BME280;47863;55.766;37.672;2023-07-20T04:58:21;98582.97;;;16.35;71.23
61906;BME280;47863;55.766;37.672;2023-07-20T05:00:51;98585.06;;;16.33;71.11
61906;BME280;47863;55.766;37.672;2023-07-20T05:03:17;98564.13;;;16.29;70.88
61906;BME280;47863;55.766;37.672;2023-07-20T05:05:43;98555.19;;;16.28;70.67
61906;BME280;47863;55.766;37.672;2023-07-20T05:08:09;98566.28;;;16.38;70.70
61906;BME280;47863;55.766;37.672;2023-07-20T05:10:35;98570.69;;;16.51;70.55
61906;BME280;47863;55.766;37.672;2023-07-20T05:13:03;98569.53;;;16.59;70.20
61906;BME280;47863;55.766;37.672;2023-07-20T05:15:28;98517.03;;;16.36;69.90
61906;BME280;47863;55.766;37.672;2023-07-20T05:17:54;98543.31;;;16.59;69.78
61906;BME280;47863;55.766;37.672;2023-07-20T05:20:20;98586.50;;;16.96;69.72
61906;BME280;47863;55.766;37.672;2023-07-20T05:22:46;98561.88;;;16.98;69.38
61906;BME280;47863;55.766;37.672;2023-07-20T05:25:12;98588.63;;;17.30;69.25
61906;BME280;47863;55.766;37.672;2023-07-20T05:27:38;98587.38;;;17.44;69.08
61906;BME280;47863;55.766;37.672;2023-07-20T05:30:05;98556.28;;;17.35;68.87
61906;BME280;47863;55.766;37.672;2023-07-20T05:32:33;98557.69;;;17.49;69.05
61906;BME280;47863;55.766;37.672;2023-07-20T05:34:58;98584.06;;;17.77;68.72
61906;BME280;47863;55.766;37.672;2023-07-20T05:37:24;98598.50;;;17.83;68.33
61906;BME280;47863;55.766;37.672;2023-07-20T05:39:50;98597.31;;;18.02;68.11
61906;BME280;47863;55.766;37.672;2023-07-20T05:42:16;98591.69;;;18.04;67.75
61906;BME280;47863;55.766;37.672;2023-07-20T05:44:42;98587.78;;;18.12;67.55
61906;BME280;47863;55.766;37.672;2023-07-20T05:47:08;98595.28;;;18.21;67.34
61906;BME280;47863;55.766;37.672;2023-07-20T05:49:34;98594.13;;;18.17;67.49
61906;BME280;47863;55.766;37.672;2023-07-20T05:52:00;98589.88;;;18.21;67.60
61906;BME280;47863;55.766;37.672;2023-07-20T05:54:27;98589.38;;;18.24;67.21
61906;BME280;47863;55.766;37.672;2023-07-20T05:56:53;98593.75;;;18.26;67.47
61906;BME280;47863;55.766;37.672;2023-07-20T05:59:19;98557.84;;;18.07;67.51
61906;BME280;47863;55.766;37.672;2023-07-20T06:01:49;98597.97;;;18.33;67.17
61906;BME280;47863;55.766;37.672;2023-07-20T06:04:15;98562.34;;;18.13;66.60
61906;BME280;47863;55.766;37.672;2023-07-20T06:06:41;98592.66;;;18.38;66.36
61906;BME280;47863;55.766;37.672;2023-07-20T06:09:06;98587.91;;;18.46;66.35
61906;BME280;47863;55.766;37.672;2023-07-20T06:11:40;98543.41;;;18.30;65.81
61906;BME280;47863;55.766;37.672;2023-07-20T06:14:06;98600.28;;;18.82;65.48
61906;BME280;47863;55.766;37.672;2023-07-20T06:16:31;98586.78;;;18.87;65.37
61906;BME280;47863;55.766;37.672;2023-07-20T06:18:59;98584.25;;;18.97;64.96
61906;BME280;47863;55.766;37.672;2023-07-20T06:21:25;98600.06;;;19.17;64.43
61906;BME280;47863;55.766;37.672;2023-07-20T06:23:51;98586.34;;;19.24;64.01
61906;BME280;47863;55.766;37.672;2023-07-20T06:26:17;98600.03;;;19.68;62.83
61906;BME280;47863;55.766;37.672;2023-07-20T06:28:42;98599.41;;;20.00;62.66
61906;BME280;47863;55.766;37.672;2023-07-20T06:31:08;98605.16;;;20.48;62.06
61906;BME280;47863;55.766;37.672;2023-07-20T06:33:34;98600.94;;;20.84;61.57
61906;BME280;47863;55.766;37.672;2023-07-20T06:36:03;98598.97;;;21.07;60.81
61906;BME280;47863;55.766;37.672;2023-07-20T06:38:29;98589.16;;;21.38;61.11
61906;BME280;47863;55.766;37.672;2023-07-20T06:40:55;98595.72;;;21.79;60.36
61906;BME280;47863;55.766;37.672;2023-07-20T06:43:21;98593.72;;;22.12;59.77
61906;BME280;47863;55.766;37.672;2023-07-20T06:45:51;98580.19;;;22.28;59.86
61906;BME280;47863;55.766;37.672;2023-07-20T06:48:18;98602.59;;;22.40;59.70
61906;BME280;47863;55.766;37.672;2023-07-20T06:50:44;98587.66;;;22.63;58.96
61906;BME280;47863;55.766;37.672;2023-07-20T06:53:09;98575.06;;;22.57;58.77
61906;BME280;47863;55.766;37.672;2023-07-20T06:55:35;98595.84;;;22.78;57.15
61906;BME280;47863;55.766;37.672;2023-07-20T06:58:01;98593.47;;;23.08;54.94
61906;BME280;47863;55.766;37.672;2023-07-20T07:00:26;98576.00;;;23.14;55.13
61906;BME280;47863;55.766;37.672;2023-07-20T07:02:52;98569.44;;;23.41;54.13
61906;BME280;47863;55.766;37.672;2023-07-20T07:05:17;98593.16;;;23.55;54.47
61906;BME280;47863;55.766;37.672;2023-07-20T07:07:43;98574.81;;;23.92;53.29
61906;BME280;47863;55.766;37.672;2023-07-20T07:10:09;98586.38;;;24.93;51.34
61906;BME280;47863;55.766;37.672;2023-07-20T07:12:35;98581.19;;;26.33;49.44
61906;BME280;47863;55.766;37.672;2023-07-20T07:15:04;98573.94;;;27.98;47.69
61906;BME280;47863;55.766;37.672;2023-07-20T07:17:33;98586.13;;;28.97;46.67
61906;BME280;47863;55.766;37.672;2023-07-20T07:20:00;98565.03;;;30.00;42.83
61906;BME280;47863;55.766;37.672;2023-07-20T07:22:26;98554.63;;;31.16;41.60
61906;BME280;47863;55.766;37.672;2023-07-20T07:24:51;98612.47;;;32.50;40.43
61906;BME280;47863;55.766;37.672;2023-07-20T07:27:17;98596.97;;;33.21;36.81
61906;BME280;47863;55.766;37.672;2023-07-20T07:29:43;98602.44;;;34.33;36.28
61906;BME280;47863;55.766;37.672;2023-07-20T07:32:12;98598.84;;;35.83;35.50
61906;BME280;47863;55.766;37.672;2023-07-20T07:34:38;98611.13;;;37.36;33.63
61906;BME280;47863;55.766;37.672;2023-07-20T07:37:04;98601.34;;;37.88;32.08
61906;BME280;47863;55.766;37.672;2023-07-20T07:39:30;98564.69;;;38.16;32.19
61906;BME280;47863;55.766;37.672;2023-07-20T07:41:56;98583.41;;;38.96;30.38
61906;BME280;47863;55.766;37.672;2023-07-20T07:44:23;98612.28;;;39.34;29.46
61906;BME280;47863;55.766;37.672;2023-07-20T07:46:49;98630.97;;;39.22;25.48
61906;BME280;47863;55.766;37.672;2023-07-20T07:49:15;98617.25;;;39.14;25.24
61906;BME280;47863;55.766;37.672;2023-07-20T07:51:40;98571.94;;;39.38;25.52
61906;BME280;47863;55.766;37.672;2023-07-20T07:54:06;98622.94;;;39.55;23.02
61906;BME280;47863;55.766;37.672;2023-07-20T07:56:32;98619.09;;;39.70;23.34
61906;BME280;47863;55.766;37.672;2023-07-20T07:58:57;98619.72;;;40.38;22.69
61906;BME280;47863;55.766;37.672;2023-07-20T08:01:23;98614.53;;;40.37;21.34
61906;BME280;47863;55.766;37.672;2023-07-20T08:03:49;98608.91;;;39.51;22.33
61906;BME280;47863;55.766;37.672;2023-07-20T08:06:15;98601.97;;;39.41;22.34
61906;BME280;47863;55.766;37.672;2023-07-20T08:08:41;98614.06;;;39.15;22.10
61906;BME280;47863;55.766;37.672;2023-07-20T08:11:08;98609.97;;;38.25;21.71
61906;BME280;47863;55.766;37.672;2023-07-20T08:13:35;98624.94;;;39.20;21.70
61906;BME280;47863;55.766;37.672;2023-07-20T08:16:01;98626.59;;;40.48;20.71
61906;BME280;47863;55.766;37.672;2023-07-20T08:18:28;98618.69;;;41.45;19.78
61906;BME280;47863;55.766;37.672;2023-07-20T08:20:54;98610.75;;;41.79;19.72
61906;BME280;47863;55.766;37.672;2023-07-20T08:23:20;98622.31;;;41.49;18.68
61906;BME280;47863;55.766;37.672;2023-07-20T08:25:46;98615.56;;;41.75;18.79
61906;BME280;47863;55.766;37.672;2023-07-20T08:28:15;98625.63;;;42.52;18.05
61906;BME280;47863;55.766;37.672;2023-07-20T08:30:42;98636.75;;;43.13;19.22
61906;BME280;47863;55.766;37.672;2023-07-20T08:33:09;98601.53;;;42.04;18.93
61906;BME280;47863;55.766;37.672;2023-07-20T08:35:37;98626.06;;;42.32;18.98
61906;BME280;47863;55.766;37.672;2023-07-20T08:38:03;98630.81;;;42.71;18.87
61906;BME280;47863;55.766;37.672;2023-07-20T08:40:31;98614.38;;;42.66;17.22
61906;BME280;47863;55.766;37.672;2023-07-20T08:42:59;98624.44;;;42.60;17.09
61906;BME280;47863;55.766;37.672;2023-07-20T08:45:27;98625.50;;;41.37;17.36
61906;BME280;47863;55.766;37.672;2023-07-20T08:47:56;98616.91;;;38.88;19.28
61906;BME280;47863;55.766;37.672;2023-07-20T08:50:23;98611.69;;;36.35;20.91
61906;BME280;47863;55.766;37.672;2023-07-20T08:52:51;98623.88;;;34.33;22.52
61906;BME280;47863;55.766;37.672;2023-07-20T08:55:19;98632.34;;;32.52;23.77
61906;BME280;47863;55.766;37.672;2023-07-20T08:57:47;98626.84;;;31.49;24.70
61906;BME280;47863;55.766;37.672;2023-07-20T09:00:15;98609.16;;;31.97;24.29
61906;BME280;47863;55.766;37.672;2023-07-20T09:02:44;98625.63;;;32.32;23.93
61906;BME280;47863;55.766;37.672;2023-07-20T09:05:10;98623.84;;;33.08;23.43
61906;BME280;47863;55.766;37.672;2023-07-20T09:07:36;98613.75;;;33.04;23.44
61906;BME280;47863;55.766;37.672;2023-07-20T09:10:02;98623.69;;;32.33;24.00
61906;BME280;47863;55.766;37.672;2023-07-20T09:12:34;98598.50;;;32.76;23.75
61906;BME280;47863;55.766;37.672;2023-07-20T09:15:00;98619.00;;;34.67;22.36
61906;BME280;47863;55.766;37.672;2023-07-20T09:17:29;98628.66;;;36.62;20.89
61906;BME280;47863;55.766;37.672;2023-07-20T09:19:54;98624.75;;;38.03;20.16
61906;BME280;47863;55.766;37.672;2023-07-20T09:22:20;98635.00;;;38.95;19.38
61906;BME280;47863;55.766;37.672;2023-07-20T09:24:46;98626.50;;;39.48;18.33
61906;BME280;47863;55.766;37.672;2023-07-20T09:27:11;98653.09;;;40.51;18.24
61906;BME280;47863;55.766;37.672;2023-07-20T09:29:51;98638.38;;;39.07;19.06
61906;BME280;47863;55.766;37.672;2023-07-20T09:32:21;98636.50;;;36.56;20.63
61906;BME280;47863;55.766;37.672;2023-07-20T09:34:47;98636.00;;;34.53;21.67
61906;BME280;47863;55.766;37.672;2023-07-20T09:37:12;98637.50;;;32.71;24.10
61906;BME280;47863;55.766;37.672;2023-07-20T09:39:45;98620.19;;;31.15;24.91
61906;BME280;47863;55.766;37.672;2023-07-20T09:42:12;98631.22;;;29.92;26.36
61906;BME280;47863;55.766;37.672;2023-07-20T09:44:39;98628.28;;;29.12;27.23
61906;BME280;47863;55.766;37.672;2023-07-20T09:47:05;98629.91;;;28.35;28.06
61906;BME280;47863;55.766;37.672;2023-07-20T09:49:31;98615.63;;;27.58;28.25
61906;BME280;47863;55.766;37.672;2023-07-20T09:52:01;98636.63;;;26.97;29.49
61906;BME280;47863;55.766;37.672;2023-07-20T09:54:28;98672.38;;;26.30;30.36
61906;BME280;47863;55.766;37.672;2023-07-20T09:56:55;98648.91;;;25.21;31.81
61906;BME280;47863;55.766;37.672;2023-07-20T09:59:22;98687.34;;;24.45;32.96
61906;BME280;47863;55.766;37.672;2023-07-20T10:01:49;98685.00;;;23.51;34.17
61906;BME280;47863;55.766;37.672;2023-07-20T10:04:16;98688.97;;;22.77;35.92
61906;BME280;47863;55.766;37.672;2023-07-20T10:06:47;98693.81;;;22.17;35.99
61906;BME280;47863;55.766;37.672;2023-07-20T10:09:15;98681.75;;;21.65;36.58
61906;BME280;47863;55.766;37.672;2023-07-20T10:11:45;98662.66;;;21.33;38.40
61906;BME280;47863;55.766;37.672;2023-07-20T10:14:12;98686.19;;;21.44;38.20
61906;BME280;47863;55.766;37.672;2023-07-20T10:16:50;98683.22;;;21.46;38.66
61906;BME280;47863;55.766;37.672;2023-07-20T10:19:28;98682.50;;;21.55;39.70
61906;BME280;47863;55.766;37.672;2023-07-20T10:22:15;98607.72;;;22.26;39.04
61906;BME280;47863;55.766;37.672;2023-07-20T10:24:45;98665.44;;;25.50;38.08
61906;BME280;47863;55.766;37.672;2023-07-20T10:27:11;98644.34;;;27.52;33.89
61906;BME280;47863;55.766;37.672;2023-07-20T10:29:36;98665.25;;;29.33;32.83
61906;BME280;47863;55.766;37.672;2023-07-20T10:32:03;98674.09;;;30.60;32.14
61906;BME280;47863;55.766;37.672;2023-07-20T10:34:29;98596.75;;;31.21;31.42
61906;BME280;47863;55.766;37.672;2023-07-20T10:36:54;98662.31;;;31.12;32.10
61906;BME280;47863;55.766;37.672;2023-07-20T10:39:25;98674.88;;;30.12;33.69
61906;BME280;47863;55.766;37.672;2023-07-20T10:42:09;98677.94;;;31.08;33.78
61906;BME280;47863;55.766;37.672;2023-07-20T10:44:37;98649.88;;;31.88;31.66
61906;BME280;47863;55.766;37.672;2023-07-20T10:47:08;98665.78;;;33.07;30.87
61906;BME280;47863;55.766;37.672;2023-07-20T10:49:34;98655.59;;;34.44;29.20
61906;BME280;47863;55.766;37.672;2023-07-20T10:52:04;98654.34;;;36.20;27.31
61906;BME280;47863;55.766;37.672;2023-07-20T10:56:59;98649.81;;;38.19;26.09
61906;BME280;47863;55.766;37.672;2023-07-20T10:59:46;98654.00;;;37.86;26.74
61906;BME280;47863;55.766;37.672;2023-07-20T11:02:12;98647.09;;;38.03;24.93
61906;BME280;47863;55.766;37.672;2023-07-20T11:04:39;98631.78;;;38.39;24.15
61906;BME280;47863;55.766;37.672;2023-07-20T11:07:05;98638.22;;;38.97;23.78
61906;BME280;47863;55.766;37.672;2023-07-20T11:09:38;98646.78;;;39.07;23.85
61906;BME280;47863;55.766;37.672;2023-07-20T11:12:15;98626.91;;;37.47;24.76
61906;BME280;47863;55.766;37.672;2023-07-20T11:14:42;98652.69;;;35.30;26.91
61906;BME280;47863;55.766;37.672;2023-07-20T11:17:15;98638.97;;;32.69;28.52
61906;BME280;47863;55.766;37.672;2023-07-20T11:19:41;98671.19;;;30.74;30.17
61906;BME280;47863;55.766;37.672;2023-07-20T11:22:07;98663.59;;;29.10;31.55
61906;BME280;47863;55.766;37.672;2023-07-20T11:24:34;98671.81;;;27.71;32.84
61906;BME280;47863;55.766;37.672;2023-07-20T11:27:00;98705.50;;;26.39;36.30
61906;BME280;47863;55.766;37.672;2023-07-20T11:29:29;98722.78;;;24.91;38.65
61906;BME280;47863;55.766;37.672;2023-07-20T11:31:56;98703.63;;;23.80;39.26
61906;BME280;47863;55.766;37.672;2023-07-20T11:34:22;98704.00;;;22.90;40.06
61906;BME280;47863;55.766;37.672;2023-07-20T11:36:50;98694.19;;;22.31;41.37
61906;BME280;47863;55.766;37.672;2023-07-20T11:39:18;98705.47;;;22.02;41.86
61906;BME280;47863;55.766;37.672;2023-07-20T11:41:48;98694.47;;;21.92;41.29
61906;BME280;47863;55.766;37.672;2023-07-20T11:44:19;98680.00;;;21.86;42.49
61906;BME280;47863;55.766;37.672;2023-07-20T11:46:48;98695.22;;;22.20;41.49
61906;BME280;47863;55.766;37.672;2023-07-20T11:49:14;98692.19;;;22.64;40.83
61906;BME280;47863;55.766;37.672;2023-07-20T11:51:40;98690.22;;;23.43;39.70
61906;BME280;47863;55.766;37.672;2023-07-20T11:54:07;98686.91;;;24.93;38.14
61906;BME280;47863;55.766;37.672;2023-07-20T11:56:33;98680.22;;;25.54;37.28
61906;BME280;47863;55.766;37.672;2023-07-20T11:58:59;98688.13;;;25.95;37.24
61906;BME280;47863;55.766;37.672;2023-07-20T12:01:28;98694.63;;;26.77;36.37
61906;BME280;47863;55.766;37.672;2023-07-20T12:03:56;98678.28;;;26.66;36.66
61906;BME280;47863;55.766;37.672;2023-07-20T12:06:25;98674.41;;;26.19;37.77
61906;BME280;47863;55.766;37.672;2023-07-20T12:08:55;98700.44;;;25.63;38.34
61906;BME280;47863;55.766;37.672;2023-07-20T12:11:35;98683.03;;;24.94;38.86
61906;BME280;47863;55.766;37.672;2023-07-20T12:14:08;98664.97;;;24.33;39.53
61906;BME280;47863;55.766;37.672;2023-07-20T12:16:35;98692.59;;;24.31;39.88
61906;BME280;47863;55.766;37.672;2023-07-20T12:19:02;98698.00;;;24.62;39.60
61906;BME280;47863;55.766;37.672;2023-07-20T12:21:29;98696.44;;;25.45;38.48
61906;BME280;47863;55.766;37.672;2023-07-20T12:23:57;98696.25;;;26.29;37.64
61906;BME280;47863;55.766;37.672;2023-07-20T12:26:24;98696.22;;;26.59;37.05
61906;BME280;47863;55.766;37.672;2023-07-20T12:28:51;98691.38;;;26.26;37.30
61906;BME280;47863;55.766;37.672;2023-07-20T12:31:17;98699.63;;;25.97;37.93
61906;BME280;47863;55.766;37.672;2023-07-20T12:33:44;98698.44;;;25.69;38.13
61906;BME280;47863;55.766;37.672;2023-07-20T12:36:10;98695.50;;;25.60;38.36
61906;BME280;47863;55.766;37.672;2023-07-20T12:38:36;98679.53;;;25.38;38.66
61906;BME280;47863;55.766;37.672;2023-07-20T12:41:02;98690.28;;;25.19;38.54
61906;BME280;47863;55.766;37.672;2023-07-20T12:43:29;98694.25;;;24.98;39.07
61906;BME280;47863;55.766;37.672;2023-07-20T12:45:55;98700.59;;;24.93;39.12
61906;BME280;47863;55.766;37.672;2023-07-20T12:48:21;98657.97;;;24.71;39.80
61906;BME280;47863;55.766;37.672;2023-07-20T12:50:48;98691.03;;;24.85;39.64
61906;BME280;47863;55.766;37.672;2023-07-20T12:53:14;98592.84;;;24.03;39.93
61906;BME280;47863;55.766;37.672;2023-07-20T12:55:40;98677.88;;;24.12;40.51
61906;BME280;47863;55.766;37.672;2023-07-20T12:58:07;98636.66;;;23.47;41.61